Terminal Aerodrome Forecast
Issued by NWS

Home | Current Version | Previous Version | Text Only | Print | Product List | Glossary On
Versions: 1 2 3 4 5 6 7 8 9 10 11 12 13 14 15 16 17
420
FTUS45 KRIW 271725
TAFJAC
TAF
KJAC 271725Z 2718/2818 19007KT P6SM FEW012 SCT020 BKN040
     FM272100 17006KT 5SM -SHRA SCT012 BKN025
     FM280300 35007KT 5SM -SN SCT012 OVC020
     FM280600 35011KT P6SM VCFG SCT008 BKN020
     FM281500 35011KT P6SM SCT015 BKN030
      AMD LTD TO CLD VIS AND WIND=

USA.gov is the U.S. government's official web portal to all federal, state and local government web resources and services.